Time;durP1;ratioP1;P1;durP2;ratioP2;P2;SDS_P1;SDS_P2;PMS_P1;PMS_P2;Temp;Humidity;BMP_temperature;BMP_pressure;BME280_temperature;BME280_humidity;BME280_pressure;Samples;Min_cycle;Max_cycle;Signal;HPM_P1;HPM_P2
2022/07/06 00:01:18;;;;;;;;;;;;;;;;;;5074930;28;19991;-41
2022/07/06 00:03:43;;;;;;;;;;;;;;;;;;5075225;28;19960;-41
2022/07/06 00:06:08;;;;;;;;;;;;;;;;;;5074789;28;20240;-41
2022/07/06 00:08:33;;;;;;;;;;;;;;;;;;5074778;28;19992;-41
2022/07/06 00:10:59;;;;;;;;;;;;;;;;;;5074506;28;19920;-41
2022/07/06 00:13:24;;;;;;;;;;;;;;;;;;5074825;28;20351;-42
2022/07/06 00:15:49;;;;;;;;;;;;;;;;;;5074816;28;19915;-41
2022/07/06 00:18:14;;;;;;;;;;;;;;;;;;5074735;28;19922;-41
2022/07/06 00:20:39;;;;;;;;;;;;;;;;;;5074661;28;20279;-42
2022/07/06 00:23:04;;;;;;;;;;;;;;;;;;5074826;28;19917;-41
2022/07/06 00:25:29;;;;;;;;;;;;;;;;;;5074419;28;19930;-41
2022/07/06 00:27:54;;;;;;;;;;;;;;;;;;5074805;28;20321;-41
2022/07/06 00:30:19;;;;;;;;;;;;;;;;;;5076398;28;20396;-41
2022/07/06 00:32:45;;;;;;;;;;;;;;;;;;5078797;28;20315;-41
2022/07/06 00:35:10;;;;;;;;;;;;;;;;;;5078661;28;19909;-41
2022/07/06 00:37:35;;;;;;;;;;;;;;;;;;5078707;28;19912;-41
2022/07/06 00:40:00;;;;;;;;;;;;;;;;;;5078655;28;20247;-41
2022/07/06 00:42:25;;;;;;;;;;;;;;;;;;5078267;28;19908;-42
2022/07/06 00:44:50;;;;;;;;;;;;;;;;;;5060470;28;19908;-41
2022/07/06 00:47:15;;;;;;;;;;;;;;;;;;5078321;28;19908;-41
2022/07/06 00:52:24;;;;;;;;;;;;;;;;;;5078476;28;20338;-41
2022/07/06 00:54:49;;;;;;;;;;;;;;;;;;5078210;28;19909;-41
2022/07/06 00:57:14;;;;;;;;;;;;;;;;;;5078317;28;19909;-41
2022/07/06 00:59:39;;;;;;;;;;;;;;;;;;5077916;28;20424;-41
2022/07/06 01:02:05;;;;;;;;;;;;;;;;;;5078100;28;19909;-41
2022/07/06 01:04:30;;;;;;;;;;;;;;;;;;5077870;28;20347;-42
2022/07/06 01:06:55;;;;;;;;;;;;;;;;;;5077848;28;19908;-41
2022/07/06 01:09:20;;;;;;;;;;;;;;;;;;5078088;28;19913;-41
2022/07/06 01:11:45;;;;;;;;;;;;;;;;;;5077640;28;20367;-41
2022/07/06 01:14:10;;;;;;;;;;;;;;;;;;5078101;28;19909;-41
2022/07/06 01:16:36;;;;;;;;;;;;;;;;;;5077843;28;20344;-41
2022/07/06 01:19:01;;;;;;;;;;;;;;;;;;5077837;28;20279;-41
2022/07/06 01:21:26;;;;;;;;;;;;;;;;;;5077825;28;19909;-41
2022/07/06 01:23:51;;;;;;;;;;;;;;;;;;5077707;28;19913;-41
2022/07/06 01:26:17;;;;;;;;;;;;;;;;;;5077593;28;19908;-41
2022/07/06 01:28:42;;;;;;;;;;;;;;;;;;5059919;28;19915;-41
2022/07/06 01:31:07;;;;;;;;;;;;;;;;;;5077709;28;19913;-41
2022/07/06 01:33:32;;;;;;;;;;;;;;;;;;5077474;28;19908;-41
2022/07/06 01:35:58;;;;;;;;;;;;;;;;;;5077347;28;20341;-41
2022/07/06 01:38:23;;;;;;;;;;;;;;;;;;5075151;28;19964;-42
2022/07/06 01:40:48;;;;;;;;;;;;;;;;;;5073555;28;19912;-41
2022/07/06 01:43:13;;;;;;;;;;;;;;;;;;5077142;28;19935;-42
2022/07/06 01:45:38;;;;;;;;;;;;;;;;;;5077316;28;20335;-41
2022/07/06 01:48:03;;;;;;;;;;;;;;;;;;5077225;28;19917;-41
2022/07/06 01:50:29;;;;;;;;;;;;;;;;;;5077341;28;20003;-41
2022/07/06 01:52:54;;;;;;;;;;;;;;;;;;5077366;28;19958;-41
2022/07/06 01:55:19;;;;;;;;;;;;;;;;;;5077064;28;19999;-41
2022/07/06 01:57:44;;;;;;;;;;;;;;;;;;5077032;28;19916;-41
2022/07/06 02:00:09;;;;;;;;;;;;;;;;;;5076892;28;19932;-42
2022/07/06 02:02:34;;;;;;;;;;;;;;;;;;5076758;28;20027;-41
2022/07/06 02:04:59;;;;;;;;;;;;;;;;;;5077211;28;20363;-41
2022/07/06 02:07:24;;;;;;;;;;;;;;;;;;5076930;28;19909;-41
2022/07/06 02:09:49;;;;;;;;;;;;;;;;;;5076929;28;19936;-41
2022/07/06 02:12:15;;;;;;;;;;;;;;;;;;5076979;28;19995;-41
2022/07/06 02:14:40;;;;;;;;;;;;;;;;;;5076881;28;19908;-43
2022/07/06 02:17:05;;;;;;;;;;;;;;;;;;5076690;28;19909;-42
2022/07/06 02:19:30;;;;;;;;;;;;;;;;;;5076656;28;19909;-41
2022/07/06 02:21:55;;;;;;;;;;;;;;;;;;5076576;28;20366;-41
2022/07/06 02:24:20;;;;;;;;;;;;;;;;;;5076575;28;19912;-41
2022/07/06 02:26:45;;;;;;;;;;;;;;;;;;5058685;28;19908;-41
2022/07/06 02:29:10;;;;;;;;;;;;;;;;;;5076694;28;19909;-41
2022/07/06 02:31:35;;;;;;;;;;;;;;;;;;5058611;28;19915;-41
2022/07/06 02:34:01;;;;;;;;;;;;;;;;;;5076493;28;19908;-41
2022/07/06 02:36:26;;;;;;;;;;;;;;;;;;5076468;28;19909;-41
2022/07/06 02:38:51;;;;;;;;;;;;;;;;;;5076299;28;19991;-41
2022/07/06 02:41:16;;;;;;;;;;;;;;;;;;5076267;28;19944;-41
2022/07/06 02:43:41;;;;;;;;;;;;;;;;;;5076147;28;20000;-41
2022/07/06 02:46:06;;;;;;;;;;;;;;;;;;5058354;28;19908;-42
2022/07/06 02:48:31;;;;;;;;;;;;;;;;;;5076093;28;19919;-41
2022/07/06 02:50:58;;;;;;;;;;;;;;;;;;5076291;28;19908;-42
2022/07/06 02:53:23;;;;;;;;;;;;;;;;;;5075490;28;19909;-42
2022/07/06 02:55:48;;;;;;;;;;;;;;;;;;5075952;28;19908;-42
2022/07/06 02:58:14;;;;;;;;;;;;;;;;;;5076160;28;19915;-41
2022/07/06 03:00:39;;;;;;;;;;;;;;;;;;5075889;28;19908;-41
2022/07/06 03:03:04;;;;;;;;;;;;;;;;;;5075602;28;20397;-41
2022/07/06 03:05:29;;;;;;;;;;;;;;;;;;5075802;28;19924;-41
2022/07/06 03:07:54;;;;;;;;;;;;;;;;;;5075733;28;19914;-41
2022/07/06 03:10:19;;;;;;;;;;;;;;;;;;5075558;28;19924;-41
2022/07/06 03:12:44;;;;;;;;;;;;;;;;;;5075645;28;19908;-41
2022/07/06 03:15:10;;;;;;;;;;;;;;;;;;5075676;28;19962;-41
2022/07/06 03:17:35;;;;;;;;;;;;;;;;;;5075872;28;19904;-42
2022/07/06 03:20:00;;;;;;;;;;;;;;;;;;5075528;28;19909;-41
2022/07/06 03:22:25;;;;;;;;;;;;;;;;;;5075422;28;19913;-41
2022/07/06 03:24:50;;;;;;;;;;;;;;;;;;5075331;28;20375;-41
2022/07/06 03:27:15;;;;;;;;;;;;;;;;;;5075319;28;19910;-41
2022/07/06 03:29:40;;;;;;;;;;;;;;;;;;5075309;28;19913;-41
2022/07/06 03:32:05;;;;;;;;;;;;;;;;;;5075372;28;20007;-41
2022/07/06 03:34:30;;;;;;;;;;;;;;;;;;5075183;28;20363;-41
2022/07/06 03:36:56;;;;;;;;;;;;;;;;;;5075224;28;19936;-42
2022/07/06 03:39:21;;;;;;;;;;;;;;;;;;5075248;28;19944;-41
2022/07/06 03:41:46;;;;;;;;;;;;;;;;;;5075113;28;19912;-41
2022/07/06 03:44:11;;;;;;;;;;;;;;;;;;5075054;28;19966;-41
2022/07/06 03:46:36;;;;;;;;;;;;;;;;;;5074898;28;19936;-41
2022/07/06 03:49:01;;;;;;;;;;;;;;;;;;5075023;28;19909;-42
2022/07/06 03:51:26;;;;;;;;;;;;;;;;;;5075001;28;19998;-41
2022/07/06 03:53:51;;;;;;;;;;;;;;;;;;5074776;28;19909;-42
2022/07/06 03:56:29;;;;;;;;;;;;;;;;;;5074740;28;19949;-41
2022/07/06 03:58:54;;;;;;;;;;;;;;;;;;5074857;28;19908;-41
2022/07/06 04:01:19;;;;;;;;;;;;;;;;;;5074905;28;19912;-42
2022/07/06 04:03:44;;;;;;;;;;;;;;;;;;5074785;28;19913;-41
2022/07/06 04:06:09;;;;;;;;;;;;;;;;;;5074721;28;19909;-41
2022/07/06 04:08:34;;;;;;;;;;;;;;;;;;5075034;28;19908;-41
2022/07/06 04:10:59;;;;;;;;;;;;;;;;;;5074536;28;20286;-41
2022/07/06 04:13:28;;;;;;;;;;;;;;;;;;5074829;28;19912;-41
2022/07/06 04:15:53;;;;;;;;;;;;;;;;;;5074687;28;20430;-41
2022/07/06 04:18:18;;;;;;;;;;;;;;;;;;5074644;28;19946;-41
2022/07/06 04:20:43;;;;;;;;;;;;;;;;;;5074640;28;19908;-41
2022/07/06 04:23:08;;;;;;;;;;;;;;;;;;5074705;28;19920;-42
2022/07/06 04:25:33;;;;;;;;;;;;;;;;;;5074654;28;20267;-41
2022/07/06 04:27:58;;;;;;;;;;;;;;;;;;5074830;28;20351;-41
2022/07/06 04:30:24;;;;;;;;;;;;;;;;;;5074518;28;20264;-41
2022/07/06 04:32:49;;;;;;;;;;;;;;;;;;5074102;28;20263;-41
2022/07/06 04:35:14;;;;;;;;;;;;;;;;;;5074576;28;19913;-41
2022/07/06 04:37:39;;;;;;;;;;;;;;;;;;5074648;28;19909;-42
2022/07/06 04:40:04;;;;;;;;;;;;;;;;;;5074345;28;19912;-41
2022/07/06 04:42:29;;;;;;;;;;;;;;;;;;5074665;28;19940;-41
2022/07/06 04:44:54;;;;;;;;;;;;;;;;;;5074660;28;19909;-42
2022/07/06 04:47:19;;;;;;;;;;;;;;;;;;5074737;28;19909;-41
2022/07/06 04:49:45;;;;;;;;;;;;;;;;;;5074676;28;19940;-41
2022/07/06 04:52:10;;;;;;;;;;;;;;;;;;5074448;28;19915;-41
2022/07/06 04:54:35;;;;;;;;;;;;;;;;;;5074390;28;19909;-41
2022/07/06 04:57:00;;;;;;;;;;;;;;;;;;5074639;28;19908;-41
2022/07/06 04:59:25;;;;;;;;;;;;;;;;;;5074396;28;19909;-41
2022/07/06 05:01:50;;;;;;;;;;;;;;;;;;5074522;28;19982;-41
2022/07/06 05:04:18;;;;;;;;;;;;;;;;;;5074215;28;20018;-42
2022/07/06 05:06:43;;;;;;;;;;;;;;;;;;5074354;28;19908;-41
2022/07/06 05:09:08;;;;;;;;;;;;;;;;;;5074292;28;19915;-41
2022/07/06 05:11:33;;;;;;;;;;;;;;;;;;5073947;28;19927;-41
2022/07/06 05:13:58;;;;;;;;;;;;;;;;;;5074265;28;20279;-41
2022/07/06 05:16:23;;;;;;;;;;;;;;;;;;5075887;28;19954;-41
2022/07/06 05:18:48;;;;;;;;;;;;;;;;;;5076903;28;20003;-41
2022/07/06 05:21:14;;;;;;;;;;;;;;;;;;5077739;28;19931;-42
2022/07/06 05:23:39;;;;;;;;;;;;;;;;;;5077757;28;19952;-42
2022/07/06 05:26:04;;;;;;;;;;;;;;;;;;5077721;28;20007;-41
2022/07/06 05:28:29;;;;;;;;;;;;;;;;;;5077036;28;19913;-42
2022/07/06 05:30:54;;;;;;;;;;;;;;;;;;5074757;28;20375;-41
2022/07/06 05:33:19;;;;;;;;;;;;;;;;;;5061299;28;19924;-41
2022/07/06 05:35:44;;;;;;;;;;;;;;;;;;5071480;28;19916;-44
2022/07/06 05:38:10;;;;;;;;;;;;;;;;;;5074651;28;19912;-45
2022/07/06 05:40:35;;;;;;;;;;;;;;;;;;5079287;28;19962;-45
2022/07/06 05:43:00;;;;;;;;;;;;;;;;;;5078052;28;20002;-44
2022/07/06 05:45:25;;;;;;;;;;;;;;;;;;5073149;28;19912;-44
2022/07/06 05:50:34;;;;;;;;;;;;;;;;;;5066569;28;19963;-44
2022/07/06 05:52:59;;;;;;;;;;;;;;;;;;5054892;28;19959;-44
2022/07/06 05:55:24;;;;;;;;;;;;;;;;;;5052907;28;20370;-44
2022/07/06 05:57:50;;;;;;;;;;;;;;;;;;5039987;28;20673;-44
2022/07/06 06:00:15;;;;;;;;;;;;;;;;;;5029514;28;20572;-45
2022/07/06 06:02:40;;;;;;;;;;;;;;;;;;5010636;28;19920;-46
2022/07/06 06:05:05;;;;;;;;;;;;;;;;;;5017840;28;19921;-44
2022/07/06 06:07:31;;;;;;;;;;;;;;;;;;5005500;28;20493;-45
2022/07/06 06:09:56;;;;;;;;;;;;;;;;;;4989290;28;19942;-46
2022/07/06 06:12:21;;;;;;;;;;;;;;;;;;4920527;28;19921;-47
2022/07/06 06:14:46;;;;;;;;;;;;;;;;;;4848050;28;32982;-45
2022/07/06 06:17:11;;;;;;;;;;;;;;;;;;4741976;28;20141;-48
2022/07/06 06:19:36;;;;;;;;;;;;;;;;;;4751510;28;20963;-48
2022/07/06 06:22:02;;;;;;;;;;;;;;;;;;4593783;28;29565;-46
2022/07/06 06:24:28;;;;;;;;;;;;;;;;;;4587661;28;20580;-46
2022/07/06 06:26:53;;;;;;;;;;;;;;;;;;4617698;28;21459;-47
2022/07/06 06:29:18;;;;;;;;;;;;;;;;;;4782853;28;19924;-46
2022/07/06 06:31:43;;;;;;;;;;;;;;;;;;4853100;28;20366;-49
2022/07/06 06:34:08;;;;;;;;;;;;;;;;;;4909481;28;31888;-46
2022/07/06 06:36:33;;;;;;;;;;;;;;;;;;4894501;28;20684;-48
2022/07/06 06:38:58;;;;;;;;;;;;;;;;;;4896203;28;20427;-46
2022/07/06 06:41:24;;;;;;;;;;;;;;;;;;4898638;28;19979;-48
2022/07/06 06:43:49;;;;;;;;;;;;;;;;;;4907969;28;20083;-47
2022/07/06 06:46:14;;;;;;;;;;;;;;;;;;4916897;28;20585;-48
2022/07/06 06:48:39;;;;;;;;;;;;;;;;;;4906392;28;20003;-49
2022/07/06 06:51:05;;;;;;;;;;;;;;;;;;4910871;28;23815;-48
2022/07/06 06:53:30;;;;;;;;;;;;;;;;;;4919853;28;19927;-48
2022/07/06 06:55:55;;;;;;;;;;;;;;;;;;4886599;28;19987;-49
2022/07/06 06:58:20;;;;;;;;;;;;;;;;;;4911659;28;19920;-49
2022/07/06 07:00:47;;;;;;;;;;;;;;;;;;4917813;28;19924;-48
2022/07/06 07:03:12;;;;;;;;;;;;;;;;;;4886238;28;21022;-46
2022/07/06 07:05:37;;;;;;;;;;;;;;;;;;4908804;28;21736;-48
2022/07/06 07:08:02;;;;;;;;;;;;;;;;;;4884445;28;26430;-48
2022/07/06 07:10:27;;;;;;;;;;;;;;;;;;4911871;28;19964;-49
2022/07/06 07:12:53;;;;;;;;;;;;;;;;;;4909533;28;19921;-47
2022/07/06 07:15:18;;;;;;;;;;;;;;;;;;4887821;28;21355;-49
2022/07/06 07:17:43;;;;;;;;;;;;;;;;;;4881640;28;19921;-48
2022/07/06 07:20:08;;;;;;;;;;;;;;;;;;4892769;28;19927;-49
2022/07/06 07:22:33;;;;;;;;;;;;;;;;;;4725711;28;21008;-47
2022/07/06 07:24:58;;;;;;;;;;;;;;;;;;4569754;28;24086;-46
2022/07/06 07:27:24;;;;;;;;;;;;;;;;;;4725519;28;21349;-43
2022/07/06 07:29:49;;;;;;;;;;;;;;;;;;4764315;28;22067;-47
2022/07/06 07:32:14;;;;;;;;;;;;;;;;;;4764395;28;21471;-47
2022/07/06 07:34:39;;;;;;;;;;;;;;;;;;4747951;28;26827;-48
2022/07/06 07:37:04;;;;;;;;;;;;;;;;;;4765821;28;19924;-47
2022/07/06 07:39:29;;;;;;;;;;;;;;;;;;4714753;28;36223;-47
2022/07/06 07:41:55;;;;;;;;;;;;;;;;;;4717520;28;21301;-47
2022/07/06 07:44:20;;;;;;;;;;;;;;;;;;4655180;28;28176;-47
2022/07/06 07:46:45;;;;;;;;;;;;;;;;;;4698280;28;21129;-49
2022/07/06 07:49:10;;;;;;;;;;;;;;;;;;4794821;28;23530;-49
2022/07/06 07:51:35;;;;;;;;;;;;;;;;;;4887328;28;30284;-45
2022/07/06 07:54:00;;;;;;;;;;;;;;;;;;4904007;28;19935;-46
2022/07/06 07:56:25;;;;;;;;;;;;;;;;;;4871036;28;20046;-48
2022/07/06 07:58:51;;;;;;;;;;;;;;;;;;4896095;28;21419;-46
2022/07/06 08:01:16;;;;;;;;;;;;;;;;;;4894224;28;19916;-48
2022/07/06 08:03:41;;;;;;;;;;;;;;;;;;4876610;28;19925;-45
2022/07/06 08:06:06;;;;;;;;;;;;;;;;;;4895754;28;20920;-45
2022/07/06 08:08:31;;;;;;;;;;;;;;;;;;4897903;28;20920;-46
2022/07/06 08:10:56;;;;;;;;;;;;;;;;;;4885309;28;19999;-47
2022/07/06 08:13:21;;;;;;;;;;;;;;;;;;4871665;28;24346;-48
2022/07/06 08:15:47;;;;;;;;;;;;;;;;;;4850493;28;21897;-47
2022/07/06 08:18:12;;;;;;;;;;;;;;;;;;4835479;28;19921;-47
2022/07/06 08:20:37;;;;;;;;;;;;;;;;;;4861601;28;19998;-44
2022/07/06 08:23:02;;;;;;;;;;;;;;;;;;4841142;28;20068;-44
2022/07/06 08:25:27;;;;;;;;;;;;;;;;;;4872691;28;24620;-46
2022/07/06 08:27:53;;;;;;;;;;;;;;;;;;4861397;28;19928;-45
2022/07/06 08:30:18;;;;;;;;;;;;;;;;;;4863933;28;19925;-46
2022/07/06 08:32:43;;;;;;;;;;;;;;;;;;4876565;28;21388;-47
2022/07/06 08:35:08;;;;;;;;;;;;;;;;;;4863513;28;19920;-47
2022/07/06 08:37:33;;;;;;;;;;;;;;;;;;4819918;28;19921;-45
2022/07/06 08:39:58;;;;;;;;;;;;;;;;;;4807557;28;20797;-47
2022/07/06 08:42:23;;;;;;;;;;;;;;;;;;4645360;28;21015;-46
2022/07/06 08:44:48;;;;;;;;;;;;;;;;;;4530893;28;31001;-46
2022/07/06 08:47:13;;;;;;;;;;;;;;;;;;4657642;28;32056;-47
2022/07/06 08:49:39;;;;;;;;;;;;;;;;;;4774932;28;22730;-47
2022/07/06 08:52:04;;;;;;;;;;;;;;;;;;4836660;28;20001;-44
2022/07/06 08:54:29;;;;;;;;;;;;;;;;;;4911873;28;19921;-46
2022/07/06 08:56:54;;;;;;;;;;;;;;;;;;4959970;28;20461;-46
2022/07/06 08:59:19;;;;;;;;;;;;;;;;;;4945627;28;19920;-47
2022/07/06 09:01:46;;;;;;;;;;;;;;;;;;4934338;28;21839;-48
2022/07/06 09:04:11;;;;;;;;;;;;;;;;;;4979052;28;19924;-46
2022/07/06 09:06:36;;;;;;;;;;;;;;;;;;4967854;28;19968;-48
2022/07/06 09:09:01;;;;;;;;;;;;;;;;;;4961281;28;19998;-45
2022/07/06 09:11:26;;;;;;;;;;;;;;;;;;4970877;28;19928;-47
2022/07/06 09:13:51;;;;;;;;;;;;;;;;;;4963591;28;19921;-48
2022/07/06 09:16:17;;;;;;;;;;;;;;;;;;4974645;28;19920;-47
2022/07/06 09:18:42;;;;;;;;;;;;;;;;;;4989295;28;19920;-44
2022/07/06 09:21:07;;;;;;;;;;;;;;;;;;4995194;28;19934;-46
2022/07/06 09:23:33;;;;;;;;;;;;;;;;;;4990417;28;19928;-48
2022/07/06 09:25:58;;;;;;;;;;;;;;;;;;4990838;28;20402;-46
2022/07/06 09:28:23;;;;;;;;;;;;;;;;;;4988035;28;19920;-47
2022/07/06 09:30:48;;;;;;;;;;;;;;;;;;4963344;28;19972;-46
2022/07/06 09:33:13;;;;;;;;;;;;;;;;;;4930208;28;19959;-47
2022/07/06 09:35:39;;;;;;;;;;;;;;;;;;4907657;28;20706;-48
2022/07/06 09:38:04;;;;;;;;;;;;;;;;;;4930946;28;19920;-49
2022/07/06 09:40:29;;;;;;;;;;;;;;;;;;4921116;28;20093;-46
2022/07/06 09:42:54;;;;;;;;;;;;;;;;;;4930766;28;51379;-47
2022/07/06 09:45:19;;;;;;;;;;;;;;;;;;4975374;28;20275;-47
2022/07/06 09:47:44;;;;;;;;;;;;;;;;;;4918550;28;19934;-47
2022/07/06 09:50:10;;;;;;;;;;;;;;;;;;4891650;28;21017;-46
2022/07/06 09:52:35;;;;;;;;;;;;;;;;;;4924379;28;22317;-44
2022/07/06 09:55:00;;;;;;;;;;;;;;;;;;4958829;28;19928;-44
2022/07/06 09:57:25;;;;;;;;;;;;;;;;;;4962364;28;19920;-47
2022/07/06 09:59:51;;;;;;;;;;;;;;;;;;4963031;28;20076;-46
2022/07/06 10:02:16;;;;;;;;;;;;;;;;;;4973322;28;19951;-45
2022/07/06 10:04:41;;;;;;;;;;;;;;;;;;4990146;28;20006;-45
2022/07/06 10:07:06;;;;;;;;;;;;;;;;;;5000118;28;20045;-46
2022/07/06 10:09:32;;;;;;;;;;;;;;;;;;4998847;28;20006;-47
2022/07/06 10:11:57;;;;;;;;;;;;;;;;;;5004197;28;19928;-47
2022/07/06 10:14:22;;;;;;;;;;;;;;;;;;5005595;28;19920;-47
2022/07/06 10:16:47;;;;;;;;;;;;;;;;;;5009864;28;19921;-49
2022/07/06 10:19:12;;;;;;;;;;;;;;;;;;5015573;28;22916;-48
2022/07/06 10:21:38;;;;;;;;;;;;;;;;;;5017117;28;20527;-47
2022/07/06 10:24:03;;;;;;;;;;;;;;;;;;5011689;28;20032;-47
2022/07/06 10:26:28;;;;;;;;;;;;;;;;;;5025883;28;20921;-46
2022/07/06 10:28:53;;;;;;;;;;;;;;;;;;5031769;28;20377;-45
2022/07/06 10:31:18;;;;;;;;;;;;;;;;;;5021339;28;19927;-46
2022/07/06 10:33:43;;;;;;;;;;;;;;;;;;5017753;28;19920;-46
2022/07/06 10:36:08;;;;;;;;;;;;;;;;;;5008869;28;19921;-45
2022/07/06 10:38:34;;;;;;;;;;;;;;;;;;5019789;28;20580;-46
2022/07/06 10:41:06;;;;;;;;;;;;;;;;;;5032067;28;20597;-45
2022/07/06 10:43:31;;;;;;;;;;;;;;;;;;5041482;28;20019;-47
2022/07/06 10:45:56;;;;;;;;;;;;;;;;;;5036359;28;19927;-47
2022/07/06 10:48:22;;;;;;;;;;;;;;;;;;5026095;28;19923;-46
2022/07/06 10:50:47;;;;;;;;;;;;;;;;;;5026600;28;19920;-46
2022/07/06 10:53:12;;;;;;;;;;;;;;;;;;5012587;28;19920;-47
2022/07/06 10:55:37;;;;;;;;;;;;;;;;;;5012771;28;20013;-47
2022/07/06 10:58:03;;;;;;;;;;;;;;;;;;5001217;28;19920;-48
2022/07/06 11:00:28;;;;;;;;;;;;;;;;;;5009464;28;20394;-46
2022/07/06 11:02:53;;;;;;;;;;;;;;;;;;5000543;28;21565;-46
2022/07/06 11:05:18;;;;;;;;;;;;;;;;;;5010313;28;19920;-46
2022/07/06 11:07:43;;;;;;;;;;;;;;;;;;4980461;28;19920;-47
2022/07/06 11:10:08;;;;;;;;;;;;;;;;;;5045336;22;20804;-47
2022/07/06 11:12:33;;;;;;;;;;;;;;;;;;5070968;28;19947;-45
2022/07/06 11:15:02;;;;;;;;;;;;;;;;;;5083848;28;19926;-47
2022/07/06 11:17:27;;;;;;;;;;;;;;;;;;5085637;28;19920;-48
2022/07/06 11:19:52;;;;;;;;;;;;;;;;;;5080878;28;19911;-48
2022/07/06 11:22:18;;;;;;;;;;;;;;;;;;5086424;28;19966;-46
2022/07/06 11:24:44;;;;;;;;;;;;;;;;;;5091094;28;19916;-47
2022/07/06 11:27:09;;;;;;;;;;;;;;;;;;5087712;28;19926;-46
2022/07/06 11:29:36;;;;;;;;;;;;;;;;;;5088805;28;19951;-47
2022/07/06 11:32:03;;;;;;;;;;;;;;;;;;5086629;28;19965;-46
2022/07/06 11:34:28;;;;;;;;;;;;;;;;;;5090110;28;19920;-47
2022/07/06 11:36:54;;;;;;;;;;;;;;;;;;5091977;28;19953;-43
2022/07/06 11:39:19;;;;;;;;;;;;;;;;;;5093938;28;19920;-48
2022/07/06 11:41:44;;;;;;;;;;;;;;;;;;5094153;28;19935;-46
2022/07/06 11:44:09;;;;;;;;;;;;;;;;;;5090916;28;19926;-47
2022/07/06 11:46:34;;;;;;;;;;;;;;;;;;5093671;28;19912;-47
2022/07/06 11:48:59;;;;;;;;;;;;;;;;;;5094221;28;19959;-47
2022/07/06 11:51:24;;;;;;;;;;;;;;;;;;5093779;28;20606;-47
2022/07/06 11:53:50;;;;;;;;;;;;;;;;;;5100574;28;20010;-46
2022/07/06 11:56:15;;;;;;;;;;;;;;;;;;5097116;28;19969;-47
2022/07/06 11:58:42;;;;;;;;;;;;;;;;;;5094403;28;19920;-47
2022/07/06 12:01:07;;;;;;;;;;;;;;;;;;5102759;28;19961;-46
2022/07/06 12:03:32;;;;;;;;;;;;;;;;;;5102929;28;19916;-45
2022/07/06 12:05:57;;;;;;;;;;;;;;;;;;5099524;28;19919;-46
2022/07/06 12:08:22;;;;;;;;;;;;;;;;;;5098474;28;19977;-45
2022/07/06 12:10:48;;;;;;;;;;;;;;;;;;5092965;28;20339;-46
2022/07/06 12:13:13;;;;;;;;;;;;;;;;;;5087378;28;19919;-49
2022/07/06 12:15:38;;;;;;;;;;;;;;;;;;5093559;28;19916;-47
2022/07/06 12:18:03;;;;;;;;;;;;;;;;;;5093815;28;19916;-44
2022/07/06 12:20:29;;;;;;;;;;;;;;;;;;5096242;28;19912;-47
2022/07/06 12:22:54;;;;;;;;;;;;;;;;;;5101990;28;20359;-47
2022/07/06 12:25:19;;;;;;;;;;;;;;;;;;5093961;28;20051;-46
2022/07/06 12:27:45;;;;;;;;;;;;;;;;;;5101520;28;19968;-47
2022/07/06 12:30:10;;;;;;;;;;;;;;;;;;5108634;28;19916;-46
2022/07/06 12:32:36;;;;;;;;;;;;;;;;;;5102351;28;19920;-48
2022/07/06 12:35:01;;;;;;;;;;;;;;;;;;5103556;28;19912;-48
2022/07/06 12:37:26;;;;;;;;;;;;;;;;;;5101018;28;19913;-45
2022/07/06 12:39:51;;;;;;;;;;;;;;;;;;5105065;28;19911;-45
2022/07/06 12:42:16;;;;;;;;;;;;;;;;;;5098716;28;19916;-45
2022/07/06 12:44:41;;;;;;;;;;;;;;;;;;5097655;28;19924;-47
2022/07/06 12:47:07;;;;;;;;;;;;;;;;;;5089604;28;19920;-47
2022/07/06 12:49:32;;;;;;;;;;;;;;;;;;5096305;28;19927;-44
2022/07/06 12:51:57;;;;;;;;;;;;;;;;;;5087006;28;20030;-45
2022/07/06 12:54:22;;;;;;;;;;;;;;;;;;5067054;28;19920;-46
2022/07/06 12:56:47;;;;;;;;;;;;;;;;;;5062309;28;19964;-45
2022/07/06 12:59:12;;;;;;;;;;;;;;;;;;5085386;28;19919;-45
2022/07/06 13:01:37;;;;;;;;;;;;;;;;;;5088971;28;19926;-44
2022/07/06 13:04:02;;;;;;;;;;;;;;;;;;5103800;28;20378;-48
2022/07/06 13:06:27;;;;;;;;;;;;;;;;;;5104262;28;19982;-46
2022/07/06 13:08:53;;;;;;;;;;;;;;;;;;5106016;28;19998;-44
2022/07/06 13:11:18;;;;;;;;;;;;;;;;;;5102152;28;19935;-48
2022/07/06 13:13:43;;;;;;;;;;;;;;;;;;5110391;28;19919;-47
2022/07/06 13:16:08;;;;;;;;;;;;;;;;;;5112997;28;19918;-47
2022/07/06 13:18:33;;;;;;;;;;;;;;;;;;5105729;28;19947;-47
2022/07/06 13:20:58;;;;;;;;;;;;;;;;;;5111419;28;19919;-45
2022/07/06 13:23:23;;;;;;;;;;;;;;;;;;5103463;28;19927;-47
2022/07/06 13:25:49;;;;;;;;;;;;;;;;;;5105632;28;19912;-48
2022/07/06 13:28:14;;;;;;;;;;;;;;;;;;5103036;28;19915;-46
2022/07/06 13:30:39;;;;;;;;;;;;;;;;;;5103231;28;20640;-46
2022/07/06 13:33:04;;;;;;;;;;;;;;;;;;5106706;28;19911;-44
2022/07/06 13:35:29;;;;;;;;;;;;;;;;;;5099995;28;19973;-44
2022/07/06 13:37:54;;;;;;;;;;;;;;;;;;5099863;28;19964;-44
2022/07/06 13:40:19;;;;;;;;;;;;;;;;;;5101909;28;19951;-46
2022/07/06 13:42:45;;;;;;;;;;;;;;;;;;5103007;28;20003;-45
2022/07/06 13:45:10;;;;;;;;;;;;;;;;;;5102028;28;19919;-46
2022/07/06 13:47:35;;;;;;;;;;;;;;;;;;5101242;28;19977;-45
2022/07/06 13:50:01;;;;;;;;;;;;;;;;;;5105091;28;19912;-46
2022/07/06 13:52:26;;;;;;;;;;;;;;;;;;5101638;28;19912;-45
2022/07/06 13:54:51;;;;;;;;;;;;;;;;;;5098537;28;19930;-47
2022/07/06 13:57:18;;;;;;;;;;;;;;;;;;5100899;28;20285;-47
2022/07/06 13:59:45;;;;;;;;;;;;;;;;;;5103796;28;19920;-46
2022/07/06 14:02:11;;;;;;;;;;;;;;;;;;5102644;28;20328;-47
2022/07/06 14:04:36;;;;;;;;;;;;;;;;;;5093326;28;19923;-46
2022/07/06 14:07:02;;;;;;;;;;;;;;;;;;5105401;28;19991;-47
2022/07/06 14:09:27;;;;;;;;;;;;;;;;;;5110899;28;19920;-48
2022/07/06 14:11:52;;;;;;;;;;;;;;;;;;5105686;28;19963;-43
2022/07/06 14:14:18;;;;;;;;;;;;;;;;;;5097053;28;20053;-46
2022/07/06 14:16:43;;;;;;;;;;;;;;;;;;5098214;28;19965;-45
2022/07/06 14:19:08;;;;;;;;;;;;;;;;;;5099239;28;19927;-45
2022/07/06 14:21:33;;;;;;;;;;;;;;;;;;5098955;28;19942;-47
2022/07/06 14:23:58;;;;;;;;;;;;;;;;;;5092836;28;19916;-43
2022/07/06 14:26:23;;;;;;;;;;;;;;;;;;5089972;28;19920;-45
2022/07/06 14:28:48;;;;;;;;;;;;;;;;;;5097936;28;19926;-46
2022/07/06 14:31:14;;;;;;;;;;;;;;;;;;5095193;28;19926;-45
2022/07/06 14:33:39;;;;;;;;;;;;;;;;;;5099437;28;19916;-45
2022/07/06 14:36:04;;;;;;;;;;;;;;;;;;5094767;28;19918;-45
2022/07/06 14:38:29;;;;;;;;;;;;;;;;;;5098221;28;19913;-46
2022/07/06 14:40:54;;;;;;;;;;;;;;;;;;5105244;28;19938;-45
2022/07/06 14:43:19;;;;;;;;;;;;;;;;;;5109551;28;20348;-45
2022/07/06 14:45:44;;;;;;;;;;;;;;;;;;5101328;28;19942;-45
2022/07/06 14:48:10;;;;;;;;;;;;;;;;;;5105394;28;19911;-46
2022/07/06 14:50:35;;;;;;;;;;;;;;;;;;5107703;28;19916;-45
2022/07/06 14:53:00;;;;;;;;;;;;;;;;;;5102768;28;19908;-45
2022/07/06 14:55:25;;;;;;;;;;;;;;;;;;5105937;28;19918;-44
2022/07/06 14:57:50;;;;;;;;;;;;;;;;;;5105699;28;19919;-45
2022/07/06 15:00:15;;;;;;;;;;;;;;;;;;5117617;28;19908;-46
2022/07/06 15:02:41;;;;;;;;;;;;;;;;;;5107999;28;19923;-46
2022/07/06 15:05:06;;;;;;;;;;;;;;;;;;5098540;28;19916;-45
2022/07/06 15:07:31;;;;;;;;;;;;;;;;;;5106353;28;19927;-44
2022/07/06 15:09:56;;;;;;;;;;;;;;;;;;5101921;28;19916;-43
2022/07/06 15:12:22;;;;;;;;;;;;;;;;;;5108280;28;19920;-46
2022/07/06 15:14:47;;;;;;;;;;;;;;;;;;5108389;28;19919;-47
2022/07/06 15:17:12;;;;;;;;;;;;;;;;;;5095928;28;19918;-44
2022/07/06 15:19:37;;;;;;;;;;;;;;;;;;5106672;28;20303;-45
2022/07/06 15:22:02;;;;;;;;;;;;;;;;;;5118519;28;19955;-45
2022/07/06 15:24:27;;;;;;;;;;;;;;;;;;5106678;28;19915;-46
2022/07/06 15:26:53;;;;;;;;;;;;;;;;;;5110796;28;19959;-45
2022/07/06 15:29:18;;;;;;;;;;;;;;;;;;5097498;28;19909;-44
2022/07/06 15:31:43;;;;;;;;;;;;;;;;;;5109430;28;19919;-46
2022/07/06 15:34:08;;;;;;;;;;;;;;;;;;5114557;28;20281;-45
2022/07/06 15:36:33;;;;;;;;;;;;;;;;;;5107641;28;19935;-44
2022/07/06 15:38:58;;;;;;;;;;;;;;;;;;5115132;28;19947;-44
2022/07/06 15:41:23;;;;;;;;;;;;;;;;;;5111397;28;20293;-45
2022/07/06 15:43:48;;;;;;;;;;;;;;;;;;5103537;28;20268;-45
2022/07/06 15:46:14;;;;;;;;;;;;;;;;;;5103162;28;19919;-46
2022/07/06 15:48:39;;;;;;;;;;;;;;;;;;5106319;28;19969;-44
2022/07/06 15:51:04;;;;;;;;;;;;;;;;;;5104776;28;19916;-47
2022/07/06 15:53:29;;;;;;;;;;;;;;;;;;5106475;28;19915;-47
2022/07/06 15:55:54;;;;;;;;;;;;;;;;;;5098769;28;19919;-43
2022/07/06 15:58:19;;;;;;;;;;;;;;;;;;5105363;28;19951;-42
2022/07/06 16:00:44;;;;;;;;;;;;;;;;;;5103726;28;19943;-42
2022/07/06 16:03:09;;;;;;;;;;;;;;;;;;5094319;28;19913;-43
2022/07/06 16:05:34;;;;;;;;;;;;;;;;;;5100394;28;19912;-41
2022/07/06 16:08:00;;;;;;;;;;;;;;;;;;5078596;28;20369;-42
2022/07/06 16:10:28;;;;;;;;;;;;;;;;;;5093981;28;21651;-43
2022/07/06 16:12:53;;;;;;;;;;;;;;;;;;5095002;28;19919;-42
2022/07/06 16:15:18;;;;;;;;;;;;;;;;;;5094887;28;19908;-41
2022/07/06 16:17:43;;;;;;;;;;;;;;;;;;5103337;28;19998;-42
2022/07/06 16:20:09;;;;;;;;;;;;;;;;;;5115113;28;20266;-42
2022/07/06 16:22:34;;;;;;;;;;;;;;;;;;5115304;28;19907;-42
2022/07/06 16:24:59;;;;;;;;;;;;;;;;;;5115080;28;19916;-43
2022/07/06 16:27:24;;;;;;;;;;;;;;;;;;5115108;28;19907;-42
2022/07/06 16:29:49;;;;;;;;;;;;;;;;;;5115248;28;19954;-43
2022/07/06 16:32:14;;;;;;;;;;;;;;;;;;5115080;28;20002;-42
2022/07/06 16:34:39;;;;;;;;;;;;;;;;;;5115422;28;19908;-42
2022/07/06 16:37:05;;;;;;;;;;;;;;;;;;5115133;28;19912;-41